createdAt,value
2022-07-27T00:05:52.823Z,99.98
2022-07-27T00:15:58.251Z,100.00
2022-07-27T00:26:04.795Z,100.00
2022-07-27T00:36:17.346Z,100.00
2022-07-27T00:46:29.288Z,100.00
2022-07-27T00:56:32.593Z,100.00
2022-07-27T01:06:36.842Z,100.00
2022-07-27T01:16:40.603Z,100.00
2022-07-27T01:26:55.894Z,100.00
2022-07-27T01:37:05.270Z,100.00
2022-07-27T01:47:14.236Z,100.00
2022-07-27T01:57:18.347Z,100.00
2022-07-27T02:07:30.214Z,100.00
2022-07-27T02:17:38.859Z,100.00
2022-07-27T02:27:45.853Z,100.00
2022-07-27T02:37:51.909Z,100.00
2022-07-27T02:47:55.113Z,100.00
2022-07-27T02:57:58.241Z,100.00
2022-07-27T03:08:01.735Z,99.92
2022-07-27T03:18:04.954Z,99.14
2022-07-27T03:28:08.078Z,98.24
2022-07-27T03:48:57.992Z,95.54
2022-07-27T03:59:01.724Z,94.13
2022-07-27T04:09:08.506Z,92.94
2022-07-27T04:19:21.304Z,92.60
2022-07-27T04:29:28.718Z,92.25
2022-07-27T04:39:32.283Z,91.41
2022-07-27T04:49:36.334Z,91.13
2022-07-27T05:00:50.558Z,90.37
2022-07-27T05:11:04.427Z,88.62
2022-07-27T05:21:25.587Z,86.05
2022-07-27T05:31:41.395Z,84.54
2022-07-27T05:41:48.906Z,81.83
2022-07-27T05:51:54.890Z,78.45
2022-07-27T06:02:03.068Z,74.55
2022-07-27T06:12:11.520Z,71.76
2022-07-27T06:22:21.478Z,67.81
2022-07-27T06:32:25.202Z,65.11
2022-07-27T06:42:29.125Z,63.85
2022-07-27T06:52:33.862Z,63.54
2022-07-27T07:02:50.645Z,62.63
2022-07-27T07:12:57.720Z,62.82
2022-07-27T07:23:02.690Z,61.52
2022-07-27T07:33:06.055Z,59.46
2022-07-27T07:43:13.458Z,59.22
2022-07-27T07:53:27.232Z,57.85
2022-07-27T08:03:45.000Z,56.66
2022-07-27T08:13:51.364Z,55.37
2022-07-27T08:23:55.068Z,54.90
2022-07-27T08:34:02.139Z,55.13
2022-07-27T08:44:27.997Z,54.80
2022-07-27T09:05:25.359Z,54.33
2022-07-27T09:15:34.672Z,53.80
2022-07-27T09:26:02.185Z,54.30
2022-07-27T09:36:12.477Z,53.67
2022-07-27T09:46:37.793Z,53.40
2022-07-27T09:56:44.407Z,53.43
2022-07-27T10:07:02.422Z,52.94
2022-07-27T10:17:08.054Z,52.47
2022-07-27T10:27:29.347Z,53.49
2022-07-27T10:37:35.054Z,53.15
2022-07-27T10:47:46.306Z,52.70
2022-07-27T10:57:49.602Z,52.45
2022-07-27T11:08:23.840Z,53.70
2022-07-27T11:18:16.287Z,52.99
2022-07-27T11:28:37.696Z,50.92
2022-07-27T11:38:53.555Z,50.24
2022-07-27T11:49:29.325Z,49.79
2022-07-27T11:59:39.622Z,50.43
2022-07-27T12:09:59.442Z,50.64
2022-07-27T12:20:07.703Z,50.58
2022-07-27T12:30:21.556Z,51.05
2022-07-27T12:40:24.949Z,50.55
2022-07-27T12:50:28.862Z,49.78
2022-07-27T13:00:34.218Z,50.37
2022-07-27T13:10:38.404Z,50.72
2022-07-27T13:20:44.429Z,50.92
2022-07-27T13:30:47.609Z,50.96
2022-07-27T13:40:57.170Z,51.43
2022-07-27T13:51:08.595Z,50.19
2022-07-27T14:01:13.317Z,50.49
2022-07-27T14:11:16.921Z,50.67
2022-07-27T14:21:21.674Z,51.34
2022-07-27T14:31:24.965Z,50.83
2022-07-27T14:41:31.810Z,50.22
2022-07-27T14:51:36.652Z,51.84
2022-07-27T15:02:30.570Z,51.55
2022-07-27T15:12:37.950Z,50.91
2022-07-27T15:22:41.601Z,50.98
2022-07-27T15:32:44.873Z,51.34
2022-07-27T15:42:49.823Z,51.75
2022-07-27T15:52:54.338Z,51.56
2022-07-27T16:02:57.560Z,50.93
2022-07-27T16:13:01.808Z,51.24
2022-07-27T16:23:17.723Z,51.56
2022-07-27T16:33:25.504Z,51.82
2022-07-27T16:43:37.453Z,52.18
2022-07-27T16:53:45.129Z,51.68
2022-07-27T17:03:49.186Z,51.75
2022-07-27T17:13:58.880Z,52.26
2022-07-27T17:24:09.226Z,52.62
2022-07-27T17:34:13.536Z,53.71
2022-07-27T17:44:16.718Z,56.10
2022-07-27T17:54:21.001Z,59.07
2022-07-27T18:04:25.619Z,60.68
2022-07-27T18:14:28.884Z,60.44
2022-07-27T18:24:35.805Z,61.50
2022-07-27T18:34:39.637Z,62.92
2022-07-27T18:44:44.912Z,64.95
2022-07-27T18:54:54.623Z,65.97
2022-07-27T19:05:00.733Z,66.80
2022-07-27T19:15:05.864Z,67.90
2022-07-27T19:25:09.310Z,68.26
2022-07-27T19:35:13.309Z,69.13
2022-07-27T19:45:44.483Z,70.37
2022-07-27T19:55:54.079Z,71.15
2022-07-27T20:06:02.689Z,71.35
2022-07-27T20:16:08.565Z,66.77
2022-07-27T20:26:12.630Z,64.51
2022-07-27T20:36:16.046Z,64.80
2022-07-27T20:46:20.210Z,66.22
2022-07-27T20:56:23.689Z,66.45
2022-07-27T21:31:09.917Z,67.53
2022-07-27T21:41:19.888Z,68.69
2022-07-27T21:51:26.826Z,68.97
2022-07-27T22:01:32.625Z,69.61
2022-07-27T22:11:40.010Z,69.31
2022-07-27T22:22:15.707Z,69.60
2022-07-27T22:32:22.035Z,69.17
2022-07-27T22:42:30.638Z,67.15
2022-07-27T22:53:23.876Z,64.88
2022-07-27T23:16:16.640Z,64.47
2022-07-27T23:49:13.191Z,65.30
2022-07-27T23:59:17.754Z,65.67
